createdAt,value
2018-09-04T00:00:46.264Z,33.73
2018-09-04T00:03:15.029Z,31.03
2018-09-04T00:05:43.749Z,30.83
2018-09-04T00:08:12.765Z,31.03
2018-09-04T00:10:41.818Z,33.93
2018-09-04T00:13:10.774Z,28.93
2018-09-04T00:15:39.942Z,26.90
2018-09-04T00:18:08.700Z,33.07
2018-09-04T00:20:37.791Z,34.93
2018-09-04T00:23:06.919Z,28.40
2018-09-04T00:25:36.758Z,35.50
2018-09-04T00:28:05.591Z,28.60
2018-09-04T00:30:34.511Z,27.90
2018-09-04T00:33:03.662Z,33.57
2018-09-04T00:35:32.489Z,32.50
2018-09-04T00:38:01.184Z,34.93
2018-09-04T00:40:30.203Z,31.57
2018-09-04T00:42:58.920Z,27.03
2018-09-04T00:45:27.995Z,32.97
2018-09-04T00:47:57.226Z,26.43
2018-09-04T00:50:25.946Z,28.17
2018-09-04T00:52:55.093Z,29.07
2018-09-04T00:55:23.846Z,32.90
2018-09-04T00:57:52.597Z,31.20
2018-09-04T01:00:25.068Z,27.03
2018-09-04T01:02:54.987Z,29.33
2018-09-04T01:05:23.699Z,30.53
2018-09-04T01:07:52.777Z,31.17
2018-09-04T01:10:21.838Z,26.57
2018-09-04T01:12:51.330Z,26.80
2018-09-04T01:15:20.440Z,28.13
2018-09-04T01:17:49.692Z,34.43
2018-09-04T01:20:18.443Z,32.03
2018-09-04T01:22:47.751Z,36.10
2018-09-04T01:25:16.873Z,33.87
2018-09-04T01:27:45.967Z,28.13
2018-09-04T01:30:15.263Z,25.63
2018-09-04T01:32:44.248Z,32.10
2018-09-04T01:35:13.268Z,34.03
2018-09-04T01:37:42.477Z,30.40
2018-09-04T01:40:11.166Z,29.30
2018-09-04T01:42:39.871Z,32.53
2018-09-04T01:45:08.715Z,38.50
2018-09-04T01:47:43.943Z,33.00
2018-09-04T01:50:13.233Z,37.43
2018-09-04T01:52:42.319Z,36.33
2018-09-04T01:55:11.094Z,31.70
2018-09-04T01:57:39.815Z,32.33
2018-09-04T02:00:10.082Z,29.73
2018-09-04T02:02:38.845Z,34.43
2018-09-04T02:05:08.318Z,26.20
2018-09-04T02:07:37.394Z,25.27
2018-09-04T02:10:06.327Z,29.83
2018-09-04T02:12:35.446Z,29.97
2018-09-04T02:15:04.223Z,32.07
2018-09-04T02:17:33.341Z,25.17
2018-09-04T02:20:02.877Z,27.10
2018-09-04T02:22:31.629Z,26.50
2018-09-04T02:25:00.397Z,35.07
2018-09-04T02:27:29.394Z,32.97
2018-09-04T02:29:58.396Z,29.93
2018-09-04T02:32:27.172Z,32.00
2018-09-04T02:34:56.248Z,34.13
2018-09-04T02:37:24.958Z,40.53
2018-09-04T02:39:54.323Z,39.50
2018-09-04T02:42:23.363Z,42.43
2018-09-04T02:44:52.703Z,32.00
2018-09-04T02:47:22.013Z,32.87
2018-09-04T02:49:50.772Z,37.47
2018-09-04T02:52:19.535Z,31.30
2018-09-04T02:54:48.607Z,34.90
2018-09-04T02:57:17.355Z,29.63
2018-09-04T02:59:46.318Z,35.30
2018-09-04T03:02:18.323Z,31.30
2018-09-04T03:04:47.739Z,36.20
2018-09-04T03:07:17.199Z,37.23
2018-09-04T03:09:45.973Z,30.77
2018-09-04T03:12:14.726Z,34.00
2018-09-04T03:14:43.881Z,31.30
2018-09-04T03:17:13.011Z,31.33
2018-09-04T03:19:41.991Z,37.47
2018-09-04T03:22:11.226Z,29.97
2018-09-04T03:24:40.030Z,34.67
2018-09-04T03:27:08.857Z,39.63
2018-09-04T03:29:37.866Z,34.00
2018-09-04T03:32:07.231Z,37.93
2018-09-04T03:34:36.418Z,34.30
2018-09-04T03:37:05.614Z,38.03
2018-09-04T03:39:35.176Z,33.53
2018-09-04T03:42:03.909Z,39.60
2018-09-04T03:44:33.119Z,46.20
2018-09-04T03:47:01.873Z,41.40
2018-09-04T03:49:30.651Z,47.67
2018-09-04T03:51:59.401Z,42.10
2018-09-04T03:54:28.843Z,39.93
2018-09-04T03:56:57.598Z,38.73
2018-09-04T03:59:26.732Z,44.57
2018-09-04T04:01:55.750Z,47.63
2018-09-04T04:04:24.885Z,42.40
2018-09-04T04:06:53.637Z,40.83
2018-09-04T04:09:23.152Z,45.50
2018-09-04T04:11:51.958Z,45.10
2018-09-04T04:14:21.117Z,51.90
2018-09-04T04:16:50.652Z,44.60
2018-09-04T04:19:19.432Z,47.20
2018-09-04T04:21:48.199Z,55.33
2018-09-04T04:24:16.963Z,49.43
2018-09-04T04:26:46.084Z,49.23
2018-09-04T04:29:15.249Z,51.50
2018-09-04T04:31:44.542Z,47.50
2018-09-04T04:34:13.307Z,47.87
2018-09-04T04:36:42.076Z,54.83
2018-09-04T04:39:11.201Z,55.30
2018-09-04T04:41:39.983Z,53.73
2018-09-04T04:44:09.045Z,50.77
2018-09-04T04:46:38.750Z,54.23
2018-09-04T04:49:08.203Z,56.70
2018-09-04T04:51:37.190Z,51.50
2018-09-04T04:54:06.068Z,48.10
2018-09-04T04:56:35.176Z,53.90
2018-09-04T04:59:03.948Z,53.13
2018-09-04T05:01:33.370Z,51.97
2018-09-04T05:04:02.575Z,69.00
2018-09-04T05:06:32.006Z,53.73
2018-09-04T05:09:01.036Z,60.13
2018-09-04T05:11:29.885Z,54.97
2018-09-04T05:13:58.677Z,49.27
2018-09-04T05:16:27.368Z,55.60
2018-09-04T05:18:56.493Z,53.20
2018-09-04T05:21:25.564Z,53.30
2018-09-04T05:23:54.674Z,53.20
2018-09-04T05:26:23.686Z,60.60
2018-09-04T05:28:52.953Z,53.57
2018-09-04T05:31:21.824Z,62.27
2018-09-04T05:33:51.271Z,54.70
2018-09-04T05:36:20.557Z,50.50
2018-09-04T05:38:49.331Z,52.50
2018-09-04T05:41:18.148Z,55.83
2018-09-04T05:43:50.900Z,49.77
2018-09-04T05:46:29.056Z,60.87
2018-09-04T05:48:58.811Z,54.03
2018-09-04T05:51:27.839Z,52.60
2018-09-04T05:53:56.743Z,51.37
2018-09-04T05:56:25.558Z,64.07
2018-09-04T05:58:54.622Z,59.17
2018-09-04T06:01:23.849Z,48.57
2018-09-04T06:03:52.870Z,51.00
2018-09-04T06:06:22.051Z,55.77
2018-09-04T06:08:51.128Z,45.77
2018-09-04T06:11:19.891Z,47.23
2018-09-04T06:13:48.760Z,56.23
2018-09-04T06:16:17.557Z,50.27
2018-09-04T06:18:46.711Z,47.33
2018-09-04T06:21:16.015Z,51.87
2018-09-04T06:23:44.734Z,50.80
2018-09-04T06:26:13.934Z,50.80
2018-09-04T06:28:42.676Z,43.73
2018-09-04T06:31:12.089Z,49.60
2018-09-04T06:33:41.871Z,45.03
2018-09-04T06:36:10.853Z,49.80
2018-09-04T06:38:39.930Z,47.07
2018-09-04T06:41:08.644Z,43.23
2018-09-04T06:43:38.342Z,48.53
2018-09-04T06:46:07.149Z,40.47
2018-09-04T06:48:36.487Z,49.87
2018-09-04T06:51:05.760Z,41.30
2018-09-04T06:53:34.499Z,45.07
2018-09-04T06:56:03.473Z,36.40
2018-09-04T06:58:32.808Z,41.23
2018-09-04T07:01:01.643Z,36.90
2018-09-04T07:03:30.417Z,41.20
2018-09-04T07:05:59.432Z,33.47
2018-09-04T07:08:28.699Z,35.53
2018-09-04T07:10:57.506Z,38.27
2018-09-04T07:13:26.258Z,41.13
2018-09-04T07:15:58.271Z,37.37
2018-09-04T07:18:27.901Z,31.80
2018-09-04T07:20:56.729Z,29.93
2018-09-04T07:23:25.899Z,32.60
2018-09-04T07:25:54.685Z,34.80
2018-09-04T07:28:23.830Z,42.30
2018-09-04T07:30:52.647Z,38.43
2018-09-04T07:33:21.699Z,36.27
2018-09-04T07:35:51.108Z,33.30
2018-09-04T07:38:19.892Z,29.83
2018-09-04T07:40:48.896Z,29.23
2018-09-04T07:43:18.435Z,35.00
2018-09-04T07:45:47.284Z,31.43
2018-09-04T07:48:16.046Z,25.43
2018-09-04T07:50:45.253Z,31.43
2018-09-04T07:53:15.024Z,36.70
2018-09-04T07:55:43.735Z,27.90
2018-09-04T07:58:12.829Z,28.63
2018-09-04T08:00:41.562Z,30.23
2018-09-04T08:03:10.909Z,29.57
2018-09-04T08:05:39.732Z,25.93
2018-09-04T08:08:08.516Z,22.80
2018-09-04T08:10:37.206Z,27.73
2018-09-04T08:13:07.242Z,27.93
2018-09-04T08:15:36.418Z,24.77
2018-09-04T08:18:05.822Z,24.63
2018-09-04T08:20:34.736Z,29.57
2018-09-04T08:23:03.663Z,26.93
2018-09-04T08:25:32.836Z,26.57
2018-09-04T08:28:01.891Z,31.50
2018-09-04T08:30:31.384Z,25.20
2018-09-04T08:33:00.510Z,22.60
2018-09-04T08:35:29.115Z,25.40
2018-09-04T08:38:00.768Z,30.53
2018-09-04T08:40:31.924Z,28.43
2018-09-04T08:43:00.815Z,31.73
2018-09-04T08:45:30.484Z,26.53
2018-09-04T08:48:02.639Z,28.50
2018-09-04T08:50:33.666Z,20.50
2018-09-04T08:53:03.035Z,19.63
2018-09-04T08:55:32.438Z,21.53
2018-09-04T08:58:01.241Z,29.83
2018-09-04T09:00:30.012Z,38.30
2018-09-04T09:02:58.976Z,23.70
2018-09-04T09:05:27.998Z,23.00
2018-09-04T09:07:56.689Z,24.90
2018-09-04T09:10:25.795Z,25.03
2018-09-04T09:12:54.759Z,22.30
2018-09-04T09:15:23.517Z,23.30
2018-09-04T09:17:52.287Z,27.23
2018-09-04T09:20:21.061Z,19.97
2018-09-04T09:22:49.861Z,19.77
2018-09-04T09:25:18.849Z,27.97
2018-09-04T09:27:47.613Z,29.03
2018-09-04T09:30:17.003Z,23.60
2018-09-04T09:32:45.949Z,21.37
2018-09-04T09:35:15.168Z,25.80
2018-09-04T09:37:43.913Z,16.73
2018-09-04T09:40:12.629Z,25.10
2018-09-04T09:42:41.874Z,20.90
2018-09-04T09:45:11.479Z,20.67
2018-09-04T09:47:45.623Z,18.87
2018-09-04T09:50:14.357Z,24.97
2018-09-04T09:52:43.245Z,26.70
2018-09-04T09:55:12.610Z,15.97
2018-09-04T09:57:42.130Z,17.30
2018-09-04T10:00:19.042Z,17.57
2018-09-04T10:02:51.949Z,21.13
2018-09-04T10:05:21.411Z,22.03
2018-09-04T10:07:50.533Z,19.87
2018-09-04T10:10:19.504Z,31.03
2018-09-04T10:12:48.376Z,22.03
2018-09-04T10:15:17.143Z,16.30
2018-09-04T10:17:46.839Z,15.40
2018-09-04T10:20:15.711Z,23.10
2018-09-04T10:22:44.962Z,17.53
2018-09-04T10:25:13.782Z,16.17
2018-09-04T10:27:42.821Z,15.63
2018-09-04T10:30:14.395Z,19.30
2018-09-04T10:32:53.632Z,18.10
2018-09-04T10:35:23.380Z,15.27
2018-09-04T10:37:52.337Z,16.00
2018-09-04T10:40:26.709Z,21.13
2018-09-04T10:42:55.715Z,19.77
2018-09-04T10:45:29.695Z,15.00
2018-09-04T10:47:58.437Z,18.47
2018-09-04T10:50:27.300Z,16.93
2018-09-04T10:52:56.018Z,22.77
2018-09-04T10:55:25.523Z,14.40
2018-09-04T10:57:54.648Z,21.93
2018-09-04T11:00:23.367Z,18.80
2018-09-04T11:02:52.213Z,15.33
2018-09-04T11:05:22.046Z,18.23
2018-09-04T11:07:51.205Z,17.27
2018-09-04T11:10:20.323Z,17.13
2018-09-04T11:12:49.138Z,25.33
2018-09-04T11:15:18.101Z,14.73
2018-09-04T11:17:46.866Z,17.33
2018-09-04T11:20:16.094Z,19.80
2018-09-04T11:22:44.882Z,14.70
2018-09-04T11:25:13.619Z,26.30
2018-09-04T11:27:42.366Z,17.10
2018-09-04T11:30:13.101Z,12.67
2018-09-04T11:32:42.606Z,15.33
2018-09-04T11:35:11.787Z,17.03
2018-09-04T11:37:40.932Z,14.73
2018-09-04T11:40:10.485Z,21.63
2018-09-04T11:42:39.795Z,17.13
2018-09-04T11:45:09.223Z,15.47
2018-09-04T11:47:41.140Z,15.23
2018-09-04T11:50:10.390Z,19.47
2018-09-04T11:52:39.582Z,12.43
2018-09-04T11:55:09.149Z,13.57
2018-09-04T11:57:38.484Z,18.83
2018-09-04T12:00:09.012Z,13.33
2018-09-04T12:02:39.263Z,13.90
2018-09-04T12:05:08.017Z,15.90
2018-09-04T12:07:37.233Z,17.83
2018-09-04T12:10:07.289Z,19.00
2018-09-04T12:12:36.503Z,14.13
2018-09-04T12:15:05.165Z,14.83
2018-09-04T12:17:33.871Z,13.10
2018-09-04T12:20:10.121Z,12.97
2018-09-04T12:22:39.617Z,15.13
2018-09-04T12:25:08.473Z,14.97
2018-09-04T12:27:37.252Z,14.87
2018-09-04T12:30:06.595Z,14.97
2018-09-04T12:32:35.351Z,15.10
2018-09-04T12:35:04.086Z,17.47
2018-09-04T12:37:32.803Z,17.43
2018-09-04T12:40:01.553Z,17.43
2018-09-04T12:42:30.381Z,17.27
2018-09-04T12:45:00.620Z,15.13
2018-09-04T12:47:29.462Z,18.30
2018-09-04T12:49:58.209Z,17.90
2018-09-04T12:52:26.959Z,18.90
2018-09-04T12:54:55.867Z,22.03
2018-09-04T12:57:24.662Z,15.83
2018-09-04T12:59:54.062Z,20.70
2018-09-04T13:02:22.810Z,15.93
2018-09-04T13:04:51.601Z,14.10
2018-09-04T13:07:20.850Z,14.70
2018-09-04T13:09:49.882Z,16.23
2018-09-04T13:12:18.727Z,15.80
2018-09-04T13:14:47.563Z,13.03
2018-09-04T13:17:16.339Z,20.23
2018-09-04T13:19:45.413Z,16.63
2018-09-04T13:22:14.282Z,19.67
2018-09-04T13:24:43.707Z,19.30
2018-09-04T13:27:12.796Z,20.77
2018-09-04T13:29:41.549Z,14.87
2018-09-04T13:32:10.619Z,18.47
2018-09-04T13:34:39.325Z,13.67
2018-09-04T13:37:09.202Z,14.63
2018-09-04T13:39:38.535Z,14.67
2018-09-04T13:42:08.002Z,13.07
2018-09-04T13:44:37.239Z,15.90
2018-09-04T13:47:06.349Z,12.53
2018-09-04T13:49:35.255Z,17.47
2018-09-04T13:52:04.344Z,16.97
2018-09-04T13:54:33.407Z,15.13
2018-09-04T13:57:02.107Z,12.23
2018-09-04T13:59:31.131Z,20.07
2018-09-04T14:01:59.930Z,17.13
2018-09-04T14:04:29.236Z,18.03
2018-09-04T14:06:58.706Z,14.23
2018-09-04T14:09:27.761Z,14.87
2018-09-04T14:11:56.901Z,15.23
2018-09-04T14:14:26.223Z,12.83
2018-09-04T14:16:55.050Z,13.67
2018-09-04T14:19:23.854Z,19.43
2018-09-04T14:21:53.065Z,18.87
2018-09-04T14:24:22.179Z,14.87
2018-09-04T14:26:51.586Z,13.07
2018-09-04T14:29:53.162Z,22.70
2018-09-04T14:31:49.635Z,14.40
2018-09-04T14:34:18.367Z,16.90
2018-09-04T14:36:48.005Z,19.90
2018-09-04T14:39:16.579Z,14.43
2018-09-04T14:41:45.919Z,15.93
2018-09-04T14:44:14.687Z,23.50
2018-09-04T14:46:44.610Z,15.93
2018-09-04T14:49:13.485Z,16.43
2018-09-04T14:51:42.565Z,14.97
2018-09-04T14:54:11.871Z,18.70
2018-09-04T14:56:41.945Z,22.97
2018-09-04T14:59:10.830Z,15.10
2018-09-04T15:01:40.042Z,21.20
2018-09-04T15:04:08.751Z,13.30
2018-09-04T15:06:38.624Z,13.67
2018-09-04T15:09:07.639Z,11.77
2018-09-04T15:11:36.390Z,15.80
2018-09-04T15:14:05.389Z,14.93
2018-09-04T15:16:35.164Z,12.97
2018-09-04T15:19:04.212Z,16.87
2018-09-04T15:21:33.262Z,17.43
2018-09-04T15:24:02.799Z,13.20
2018-09-04T15:26:31.587Z,14.03
2018-09-04T15:29:00.323Z,15.07
2018-09-04T15:31:29.566Z,13.73
2018-09-04T15:33:58.305Z,164.57
2018-09-04T15:36:27.058Z,1999.90
2018-09-04T15:38:56.699Z,1999.90
2018-09-04T15:41:25.993Z,170.23
2018-09-04T15:43:54.863Z,304.60
2018-09-04T15:46:23.624Z,157.63
2018-09-04T15:48:58.203Z,1225.63
2018-09-04T15:51:27.278Z,24.90
2018-09-04T15:53:56.259Z,135.27
2018-09-04T15:56:25.077Z,153.40
2018-09-04T15:58:54.086Z,179.10
2018-09-04T16:01:22.892Z,1999.90
2018-09-04T16:03:52.238Z,105.43
2018-09-04T16:06:21.737Z,16.40
2018-09-04T16:08:50.488Z,17.10
2018-09-04T16:11:19.527Z,414.17
2018-09-04T16:13:48.514Z,480.40
2018-09-04T16:16:17.283Z,1999.90
2018-09-04T16:18:46.354Z,247.33
2018-09-04T16:21:15.410Z,1375.50
2018-09-04T16:23:44.113Z,20.60
2018-09-04T16:26:12.985Z,16.70
2018-09-04T16:28:41.700Z,81.70
2018-09-04T16:31:11.166Z,30.53
2018-09-04T16:33:40.000Z,1999.90
2018-09-04T16:36:09.056Z,1385.50
2018-09-04T16:38:38.809Z,132.17
2018-09-04T16:41:07.793Z,95.00
2018-09-04T16:43:37.053Z,80.77
2018-09-04T16:46:05.841Z,127.83
2018-09-04T16:48:34.634Z,87.33
2018-09-04T16:51:05.174Z,233.80
2018-09-04T16:53:34.144Z,186.40
2018-09-04T16:56:03.334Z,1999.90
2018-09-04T16:58:33.087Z,1999.90
2018-09-04T17:01:02.274Z,1999.90
2018-09-04T17:03:31.777Z,172.10
2018-09-04T17:06:00.721Z,1999.90
2018-09-04T17:08:29.459Z,1999.90
2018-09-04T17:10:58.498Z,1999.90
2018-09-04T17:13:27.258Z,1999.90
2018-09-04T17:15:56.223Z,1999.90
2018-09-04T17:18:25.001Z,1999.90
2018-09-04T17:20:54.223Z,1999.90
2018-09-04T17:23:23.733Z,1999.90
2018-09-04T17:25:52.877Z,1999.90
2018-09-04T17:28:21.908Z,1999.90
2018-09-04T17:30:50.619Z,1999.90
2018-09-04T17:33:19.518Z,1999.90
2018-09-04T17:35:48.232Z,1999.90
2018-09-04T17:38:17.516Z,1999.90
2018-09-04T17:40:46.587Z,1999.90
2018-09-04T17:43:15.881Z,1999.90
2018-09-04T17:45:45.269Z,1999.90
2018-09-04T17:48:14.073Z,1999.90
2018-09-04T17:50:43.382Z,1999.90
2018-09-04T17:53:12.450Z,1999.90
2018-09-04T17:55:41.562Z,1999.90
2018-09-04T17:58:10.773Z,1999.90
2018-09-04T18:00:42.546Z,1999.90
2018-09-04T18:03:11.337Z,1999.90
2018-09-04T18:05:40.639Z,1999.90
2018-09-04T18:08:09.950Z,1999.90
2018-09-04T18:10:38.992Z,1999.90
2018-09-04T18:13:07.752Z,776.17
2018-09-04T18:15:36.532Z,184.67
2018-09-04T18:18:06.187Z,180.60
2018-09-04T18:20:34.980Z,177.57
2018-09-04T18:23:03.708Z,182.53
2018-09-04T18:25:32.826Z,183.50
2018-09-04T18:28:01.900Z,1999.90
2018-09-04T18:30:31.030Z,1999.90
2018-09-04T18:33:00.053Z,1999.90
2018-09-04T18:35:28.813Z,1999.90
2018-09-04T18:37:57.730Z,1999.90
2018-09-04T18:40:26.465Z,1999.90
2018-09-04T18:42:55.265Z,1999.90
2018-09-04T18:45:35.466Z,1999.90
2018-09-04T18:48:05.110Z,1999.90
2018-09-04T18:50:34.115Z,1999.90
2018-09-04T18:53:03.138Z,1999.90
2018-09-04T18:55:32.274Z,1999.90
2018-09-04T18:58:01.447Z,1999.90
2018-09-04T19:00:30.293Z,1999.90
2018-09-04T19:02:59.634Z,1999.90
2018-09-04T19:05:28.758Z,1999.90
2018-09-04T19:07:58.526Z,1999.90
2018-09-04T19:10:27.806Z,1999.90
2018-09-04T19:12:57.071Z,1999.90
2018-09-04T19:15:26.320Z,1999.90
2018-09-04T19:17:55.631Z,1999.90
2018-09-04T19:20:24.866Z,143.03
2018-09-04T19:22:54.744Z,1999.90
2018-09-04T19:25:24.581Z,1999.90
2018-09-04T19:27:53.714Z,1999.90
2018-09-04T19:30:23.007Z,1999.90
2018-09-04T19:32:52.105Z,1999.90
2018-09-04T19:35:21.228Z,1999.90
2018-09-04T19:37:50.130Z,1999.90
2018-09-04T19:40:19.401Z,1999.90
2018-09-04T19:42:48.179Z,1999.90
2018-09-04T19:45:17.005Z,1999.90
2018-09-04T19:47:45.813Z,1999.90
2018-09-04T19:50:14.594Z,1999.90
2018-09-04T19:52:43.404Z,1999.90
2018-09-04T19:55:13.724Z,1999.90
2018-09-04T19:57:42.464Z,1999.90
2018-09-04T20:00:11.600Z,1999.90
2018-09-04T20:02:40.482Z,1999.90
2018-09-04T20:05:09.860Z,1999.90
2018-09-04T20:07:39.260Z,1999.90
2018-09-04T20:10:08.076Z,1999.90
2018-09-04T20:12:37.093Z,140.50
2018-09-04T20:15:06.231Z,184.67
2018-09-04T20:17:35.289Z,188.97
2018-09-04T20:20:04.285Z,180.50
2018-09-04T20:22:33.031Z,184.17
2018-09-04T20:25:02.076Z,178.27
2018-09-04T20:27:31.093Z,174.00
2018-09-04T20:30:00.145Z,173.10
2018-09-04T20:32:35.680Z,179.50
2018-09-04T20:35:04.770Z,186.73
2018-09-04T20:37:34.248Z,173.43
2018-09-04T20:40:03.262Z,175.17
2018-09-04T20:42:32.020Z,173.33
2018-09-04T20:45:00.795Z,177.37
2018-09-04T20:47:29.653Z,184.00
2018-09-04T20:49:58.388Z,176.10
2018-09-04T20:52:27.668Z,201.80
2018-09-04T20:54:56.927Z,174.40
2018-09-04T20:57:35.565Z,172.47
2018-09-04T21:00:17.277Z,188.27
2018-09-04T21:02:57.028Z,182.57
2018-09-04T21:05:36.969Z,180.67
2018-09-04T21:08:18.111Z,185.30
2018-09-04T21:10:48.234Z,190.90
2018-09-04T21:13:17.562Z,176.97
2018-09-04T21:15:46.593Z,183.03
2018-09-04T21:18:15.295Z,190.87
2018-09-04T21:20:44.078Z,190.80
2018-09-04T21:23:13.417Z,172.87
2018-09-04T21:25:42.159Z,176.50
2018-09-04T21:28:10.944Z,179.17
2018-09-04T21:30:40.115Z,179.27
2018-09-04T21:33:09.268Z,192.13
2018-09-04T21:35:38.298Z,184.83
2018-09-04T21:38:07.129Z,187.00
2018-09-04T21:40:36.565Z,183.30
2018-09-04T21:43:05.695Z,188.17
2018-09-04T21:45:34.879Z,185.60
2018-09-04T21:48:03.679Z,204.50
2018-09-04T21:50:32.984Z,196.23
2018-09-04T21:53:02.097Z,126.77
2018-09-04T21:55:31.161Z,118.97
2018-09-04T21:58:00.236Z,122.03
2018-09-04T22:00:29.420Z,123.17
2018-09-04T22:02:58.915Z,126.97
2018-09-04T22:05:28.106Z,122.20
2018-09-04T22:07:57.926Z,135.23
2018-09-04T22:10:28.091Z,129.10
2018-09-04T22:12:57.503Z,127.40
2018-09-04T22:15:26.773Z,142.00
2018-09-04T22:17:56.466Z,166.07
2018-09-04T22:20:25.604Z,168.17
2018-09-04T22:22:54.573Z,178.63
2018-09-04T22:25:24.409Z,270.97
2018-09-04T22:27:53.495Z,48.03
2018-09-04T22:30:25.057Z,340.60
2018-09-04T22:32:53.878Z,76.10
2018-09-04T22:35:23.233Z,19.67
2018-09-04T22:37:51.968Z,22.20
2018-09-04T22:40:27.265Z,20.00
2018-09-04T22:42:56.022Z,37.90
2018-09-04T22:45:24.835Z,40.47
2018-09-04T22:47:54.229Z,40.97
2018-09-04T22:50:28.971Z,41.63
2018-09-04T22:52:57.737Z,47.50
2018-09-04T22:55:26.813Z,43.10
2018-09-04T22:57:55.632Z,55.83
2018-09-04T23:00:24.870Z,48.40
2018-09-04T23:02:54.469Z,43.73
2018-09-04T23:05:23.566Z,45.40
2018-09-04T23:07:52.604Z,46.07
2018-09-04T23:10:21.624Z,45.10
2018-09-04T23:12:51.159Z,44.90
2018-09-04T23:15:19.993Z,51.90
2018-09-04T23:17:48.725Z,44.87
2018-09-04T23:20:17.728Z,46.93
2018-09-04T23:22:47.056Z,47.10
2018-09-04T23:25:16.033Z,53.73
2018-09-04T23:27:45.411Z,44.80
2018-09-04T23:30:14.516Z,47.30
2018-09-04T23:32:44.838Z,59.53
2018-09-04T23:35:14.404Z,49.70
2018-09-04T23:37:44.042Z,49.77
2018-09-04T23:40:13.130Z,46.30
2018-09-04T23:42:42.510Z,45.87
2018-09-04T23:45:13.927Z,67.27
2018-09-04T23:47:43.732Z,49.20
2018-09-04T23:50:12.585Z,56.17
2018-09-04T23:52:41.561Z,50.70
2018-09-04T23:55:10.417Z,60.50
2018-09-04T23:57:39.911Z,55.40
